Terminal Aerodrome Forecast
Issued by NWS

Current Version | Previous Version | Text Only | Print | Product List | Glossary Off
Versions: 1 2 3 4 5 6 7 8 9 10 11 12 13 14 15 16 17 18 19

000
FTUS41 KPBZ 281100
TAFHLG
TAF
KHLG 281120Z 2812/0112 VRB03KT P6SM SCT250
     FM281700 VRB03KT P6SM BKN120
     FM010400 09006KT P6SM OVC080
     FM010700 14006KT 2SM -SN OVC015=

USA.gov is the U.S. government's official web portal to all federal, state and local government web resources and services.